Time;durP1;ratioP1;P1;durP2;ratioP2;P2;SDS_P1;SDS_P2;PMS_P1;PMS_P2;Temp;Humidity;BMP_temperature;BMP_pressure;BME280_temperature;BME280_humidity;BME280_pressure;Samples;Min_cycle;Max_cycle;Signal;HPM_P1;HPM_P2
2023/08/29 00:00:45;;;;;;;3.10;2.40;;;;;;;11.16;100.00;101447.66;5068828;28;20051;-80
2023/08/29 00:03:11;;;;;;;4.30;2.40;;;;;;;11.13;100.00;101452.41;5068965;28;20029;-79
2023/08/29 00:05:36;;;;;;;7.78;2.67;;;;;;;11.07;100.00;101443.94;5072199;28;20033;-79
2023/08/29 00:08:02;;;;;;;7.43;2.97;;;;;;;11.07;100.00;101451.09;5073406;28;20032;-79
2023/08/29 00:10:27;;;;;;;3.70;2.60;;;;;;;11.07;100.00;101457.25;5071988;28;20182;-79
2023/08/29 00:12:53;;;;;;;4.70;2.25;;;;;;;11.06;100.00;101454.72;5072617;28;20043;-79
2023/08/29 00:15:18;;;;;;;4.22;2.33;;;;;;;11.01;100.00;101446.28;5072696;28;20115;-79
2023/08/29 00:17:44;;;;;;;2.85;2.10;;;;;;;10.96;100.00;101443.13;5074182;28;20077;-79
2023/08/29 00:20:10;;;;;;;3.13;2.25;;;;;;;10.96;100.00;101436.00;5074075;28;20029;-80
2023/08/29 00:22:35;;;;;;;3.28;2.30;;;;;;;10.97;100.00;101435.03;5073953;28;20044;-79
2023/08/29 00:25:01;;;;;;;6.07;2.30;;;;;;;10.94;100.00;101429.94;5072052;28;20036;-79
2023/08/29 00:27:26;;;;;;;4.22;2.50;;;;;;;10.90;100.00;101425.88;5074363;28;20055;-79
2023/08/29 00:29:52;;;;;;;5.18;2.60;;;;;;;10.92;100.00;101431.91;5055337;28;20035;-80
2023/08/29 00:32:17;;;;;;;5.43;2.28;;;;;;;10.87;100.00;101429.63;5073770;28;20032;-80
2023/08/29 00:34:43;;;;;;;4.43;2.40;;;;;;;10.86;100.00;101429.75;5073381;28;20071;-80
2023/08/29 00:37:08;;;;;;;2.65;2.20;;;;;;;10.82;100.00;101426.47;5072186;28;20034;-80
2023/08/29 00:39:33;;;;;;;5.80;3.15;;;;;;;10.78;100.00;101422.41;5073630;28;20032;-79
2023/08/29 00:41:59;;;;;;;5.18;2.17;;;;;;;10.76;100.00;101429.66;5071773;28;20036;-80
2023/08/29 00:44:25;;;;;;;3.67;1.92;;;;;;;10.72;100.00;101434.41;5073218;28;20457;-80
2023/08/29 00:46:51;;;;;;;5.30;2.25;;;;;;;10.72;100.00;101428.25;5073255;28;20048;-80
2023/08/29 00:49:20;;;;;;;5.97;2.42;;;;;;;10.73;100.00;101425.44;5073043;28;20040;-80
2023/08/29 00:51:46;;;;;;;3.78;2.30;;;;;;;10.74;100.00;101419.13;5073351;28;20056;-80
2023/08/29 00:54:14;;;;;;;4.05;2.40;;;;;;;10.73;100.00;101420.13;5072726;28;20455;-80
2023/08/29 00:56:40;;;;;;;2.90;1.88;;;;;;;10.70;100.00;101422.19;5073644;28;20115;-79
2023/08/29 00:59:06;;;;;;;4.32;2.17;;;;;;;10.66;100.00;101426.06;5092794;28;20145;-80
2023/08/29 01:01:34;;;;;;;4.57;2.20;;;;;;;10.65;100.00;101424.38;5093078;28;20064;-79
2023/08/29 01:04:00;;;;;;;7.00;2.70;;;;;;;10.64;100.00;101428.00;5092790;28;20024;-80
2023/08/29 01:06:26;;;;;;;2.25;1.95;;;;;;;10.61;100.00;101433.56;5074656;28;20034;-79
2023/08/29 01:08:51;;;;;;;3.00;2.10;;;;;;;10.57;100.00;101433.00;5093388;28;20024;-84
2023/08/29 01:11:28;;;;;;;2.38;2.00;;;;;;;10.54;100.00;101434.09;5058384;28;20400;-80
2023/08/29 01:14:21;;;;;;;5.40;2.40;;;;;;;10.55;100.00;101442.91;5093624;28;20036;-81
2023/08/29 01:16:59;;;;;;;3.55;2.03;;;;;;;10.56;100.00;101425.97;5092399;28;20102;-80
2023/08/29 01:19:25;;;;;;;5.97;2.70;;;;;;;10.56;100.00;101429.47;5093055;28;20085;-80
2023/08/29 01:22:06;;;;;;;2.22;2.00;;;;;;;10.56;100.00;101425.97;5074686;28;20067;-80
2023/08/29 01:24:44;;;;;;;6.57;3.37;;;;;;;10.55;100.00;101419.81;5074453;28;20050;-80
2023/08/29 01:27:10;;;;;;;4.65;2.55;;;;;;;10.54;100.00;101428.75;5092994;28;20130;-80
2023/08/29 01:29:36;;;;;;;5.72;2.50;;;;;;;10.53;100.00;101416.41;5092718;28;20028;-80
2023/08/29 01:32:03;;;;;;;2.58;2.13;;;;;;;10.51;100.00;101414.84;5074468;28;20409;-80
2023/08/29 01:34:29;;;;;;;3.33;2.10;;;;;;;10.45;100.00;101416.22;5092782;28;20186;-80
2023/08/29 01:36:54;;;;;;;4.30;2.25;;;;;;;10.45;100.00;101408.22;5093046;28;20047;-84
2023/08/29 01:39:20;;;;;;;3.38;2.53;;;;;;;10.42;100.00;101397.84;5092922;28;20445;-80
2023/08/29 01:41:45;;;;;;;3.20;2.42;;;;;;;10.41;100.00;101404.94;5057154;28;20444;-80
2023/08/29 01:44:10;;;;;;;5.03;2.38;;;;;;;10.38;100.00;101399.88;5074979;28;20043;-79
2023/08/29 01:46:37;;;;;;;5.22;2.50;;;;;;;10.39;100.00;101409.56;5076520;28;20043;-80
2023/08/29 01:49:04;;;;;;;7.97;3.00;;;;;;;10.40;100.00;101413.94;5093476;28;20119;-81
2023/08/29 01:51:30;;;;;;;4.63;2.60;;;;;;;10.45;100.00;101421.53;5093814;28;20085;-79
2023/08/29 01:53:56;;;;;;;6.10;2.80;;;;;;;10.49;100.00;101420.28;5093655;28;20036;-79
2023/08/29 01:56:25;;;;;;;5.25;2.75;;;;;;;10.52;100.00;101409.41;5093616;28;20115;-80
2023/08/29 01:58:53;;;;;;;2.97;2.50;;;;;;;10.56;100.00;101421.47;5075153;28;20052;-80
2023/08/29 02:01:19;;;;;;;2.90;2.55;;;;;;;10.62;100.00;101420.16;5094346;28;20035;-80
2023/08/29 02:03:44;;;;;;;5.20;2.72;;;;;;;10.70;100.00;101419.50;5093706;28;20080;-79
2023/08/29 02:06:10;;;;;;;6.40;2.97;;;;;;;10.77;100.00;101418.03;5093598;28;20599;-79
2023/08/29 02:08:36;;;;;;;3.33;2.58;;;;;;;10.84;100.00;101419.22;5075313;28;20043;-79
2023/08/29 02:11:01;;;;;;;6.72;2.90;;;;;;;10.89;100.00;101425.00;5075318;28;20059;-80
2023/08/29 02:13:26;;;;;;;4.35;2.60;;;;;;;10.93;100.00;101426.47;5093477;28;20032;-79
2023/08/29 02:15:52;;;;;;;5.30;2.40;;;;;;;10.92;100.00;101418.59;5075263;28;20047;-81
2023/08/29 02:18:17;;;;;;;5.70;2.50;;;;;;;10.97;100.00;101418.22;5093035;28;20132;-80
2023/08/29 02:20:42;;;;;;;3.88;2.45;;;;;;;10.98;100.00;101411.94;5093515;28;20055;-80
2023/08/29 02:23:08;;;;;;;6.10;2.80;;;;;;;11.04;100.00;101422.91;5093122;28;20032;-80
2023/08/29 02:25:34;;;;;;;4.47;2.80;;;;;;;11.09;100.00;101419.84;5093081;28;20032;-80
2023/08/29 02:27:59;;;;;;;4.22;3.05;;;;;;;11.15;100.00;101419.34;5092892;28;20035;-80
2023/08/29 02:30:24;;;;;;;6.05;2.60;;;;;;;11.21;100.00;101417.97;5093341;28;20110;-80
2023/08/29 02:32:50;;;;;;;4.88;3.00;;;;;;;11.25;100.00;101417.59;5092719;28;20115;-79
2023/08/29 02:35:15;;;;;;;5.80;3.17;;;;;;;11.30;100.00;101411.91;5074304;28;20369;-80
2023/08/29 02:37:41;;;;;;;7.40;2.90;;;;;;;11.37;100.00;101414.88;5074915;28;20048;-80
2023/08/29 02:40:09;;;;;;;4.13;3.15;;;;;;;11.40;100.00;101414.59;5092691;28;20035;-79
2023/08/29 02:42:35;;;;;;;5.00;2.80;;;;;;;11.46;100.00;101422.94;5092703;28;20116;-79
2023/08/29 02:45:01;;;;;;;7.07;3.28;;;;;;;11.53;100.00;101417.91;5093171;28;20123;-80
2023/08/29 02:47:26;;;;;;;4.47;2.80;;;;;;;11.60;100.00;101432.41;5092981;28;20112;-80
2023/08/29 02:49:52;;;;;;;6.30;2.92;;;;;;;11.67;100.00;101430.03;5092335;28;20085;-79
2023/08/29 02:52:17;;;;;;;4.47;2.63;;;;;;;11.70;100.00;101435.13;5074487;28;20441;-79
2023/08/29 02:54:43;;;;;;;5.38;2.60;;;;;;;11.73;100.00;101426.84;5092466;28;20476;-80
2023/08/29 02:57:08;;;;;;;4.97;2.30;;;;;;;11.79;100.00;101428.16;5092164;28;20102;-80
2023/08/29 02:59:34;;;;;;;4.72;2.40;;;;;;;11.84;100.00;101431.28;5092029;28;20048;-80
2023/08/29 03:02:00;;;;;;;7.35;2.60;;;;;;;11.88;100.00;101434.50;5092573;28;20430;-77
2023/08/29 03:04:26;;;;;;;4.70;2.38;;;;;;;11.94;100.00;101434.88;5092246;28;20034;-77
2023/08/29 03:06:52;;;;;;;7.95;2.38;;;;;;;11.99;100.00;101437.97;5092669;28;20101;-77
2023/08/29 03:09:17;;;;;;;4.50;2.80;;;;;;;12.04;100.00;101424.22;5092327;28;20035;-78
2023/08/29 03:11:42;;;;;;;6.82;2.33;;;;;;;12.06;100.00;101430.28;5092834;28;20032;-78
2023/08/29 03:14:09;;;;;;;4.20;2.60;;;;;;;12.06;100.00;101429.44;5092553;28;20174;-79
2023/08/29 03:16:34;;;;;;;3.75;2.40;;;;;;;12.07;100.00;101434.63;5092076;28;20039;-78
2023/08/29 03:18:59;;;;;;;5.63;2.63;;;;;;;12.06;100.00;101427.63;5074250;28;20028;-78
2023/08/29 03:21:26;;;;;;;4.40;2.10;;;;;;;12.04;100.00;101432.22;5057065;28;20089;-78
2023/08/29 03:23:52;;;;;;;3.47;2.28;;;;;;;11.99;100.00;101424.63;5092017;28;20150;-78
2023/08/29 03:26:17;;;;;;;3.00;2.40;;;;;;;11.92;100.00;101428.78;5091852;28;20051;-78
2023/08/29 03:28:43;;;;;;;5.22;2.10;;;;;;;11.84;100.00;101423.28;5091956;28;20051;-77
2023/08/29 03:31:16;;;;;;;3.72;2.50;;;;;;;11.78;100.00;101426.47;5092109;28;20028;-78
2023/08/29 03:33:43;;;;;;;4.40;2.38;;;;;;;11.73;100.00;101426.00;5074523;28;20040;-77
2023/08/29 03:36:09;;;;;;;5.10;2.50;;;;;;;11.68;100.00;101429.09;5091746;28;20371;-77
2023/08/29 03:38:38;;;;;;;3.25;2.47;;;;;;;11.62;100.00;101418.94;5074009;28;20028;-78
2023/08/29 03:41:05;;;;;;;3.95;2.30;;;;;;;11.60;100.00;101416.41;5096052;28;20032;-78
2023/08/29 03:43:32;;;;;;;3.75;2.75;;;;;;;11.54;100.00;101414.28;5095656;28;20042;-78
2023/08/29 03:46:02;;;;;;;4.03;2.22;;;;;;;11.50;100.00;101415.50;5096658;28;20372;-78
2023/08/29 03:48:28;;;;;;;2.40;2.20;;;;;;;11.44;100.00;101424.88;5096383;28;20097;-78
2023/08/29 03:50:54;;;;;;;4.18;2.70;;;;;;;11.41;100.00;101416.31;5077889;28;20074;-77
2023/08/29 03:53:20;;;;;;;4.43;2.40;;;;;;;11.39;100.00;101420.91;5096311;28;20449;-78
2023/08/29 03:55:45;;;;;;;5.22;2.47;;;;;;;11.34;100.00;101417.78;5095653;28;20028;-78
2023/08/29 03:58:10;;;;;;;3.28;2.40;;;;;;;11.31;100.00;101418.06;5077664;28;20055;-78
2023/08/29 04:00:36;;;;;;;4.95;2.50;;;;;;;11.28;100.00;101417.31;5096267;28;20044;-78
2023/08/29 04:03:05;;;;;;;4.45;2.08;;;;;;;11.23;100.00;101416.88;5077868;28;20043;-78
2023/08/29 04:05:30;;;;;;;3.60;2.13;;;;;;;11.17;100.00;101427.22;5095554;28;20028;-78
2023/08/29 04:07:55;;;;;;;9.18;1.92;;;;;;;11.13;100.00;101429.28;5077494;28;20063;-79
2023/08/29 04:10:21;;;;;;;2.17;1.98;;;;;;;11.09;100.00;101431.38;5095655;28;20345;-79
2023/08/29 04:12:46;;;;;;;2.90;1.90;;;;;;;11.05;100.00;101421.94;5061116;28;20078;-79
2023/08/29 04:15:12;;;;;;;1.83;1.67;;;;;;;11.02;100.00;101429.34;5095698;28;20467;-78
2023/08/29 04:17:38;;;;;;;3.58;2.60;;;;;;;10.99;100.00;101411.78;5096433;28;20028;-78
2023/08/29 04:20:12;;;;;;;3.72;2.50;;;;;;;11.02;100.00;101410.69;5096157;28;20464;-78
2023/08/29 04:22:38;;;;;;;2.80;2.42;;;;;;;11.03;100.00;101402.59;5079307;28;20063;-78
2023/08/29 04:25:05;;;;;;;4.60;2.20;;;;;;;11.00;100.00;101400.19;5096425;28;20024;-78
2023/08/29 04:27:31;;;;;;;3.95;2.80;;;;;;;10.94;100.00;101404.19;5095969;28;20035;-78
2023/08/29 04:29:57;;;;;;;5.10;2.30;;;;;;;10.87;100.00;101400.34;5095662;28;20024;-77
2023/08/29 04:32:22;;;;;;;3.50;2.30;;;;;;;10.84;100.00;101397.94;5095639;28;20028;-79
2023/08/29 04:34:48;;;;;;;2.72;2.10;;;;;;;10.79;100.00;101394.78;5095434;28;20474;-79
2023/08/29 04:37:13;;;;;;;4.15;2.40;;;;;;;10.76;100.00;101393.25;5095202;28;20328;-78
2023/08/29 04:39:38;;;;;;;2.75;2.42;;;;;;;10.71;100.00;101390.13;5095225;28;20035;-77
2023/08/29 04:42:04;;;;;;;3.88;2.30;;;;;;;10.64;100.00;101386.25;5095050;28;20060;-78
2023/08/29 04:44:31;;;;;;;2.80;2.40;;;;;;;10.59;100.00;101394.63;5094586;28;20083;-78
2023/08/29 04:46:56;;;;;;;3.13;2.10;;;;;;;10.55;100.00;101393.22;5095502;28;20032;-78
2023/08/29 04:49:22;;;;;;;6.20;2.80;;;;;;;10.53;100.00;101396.97;5094730;28;20119;-78
2023/08/29 04:51:47;;;;;;;4.45;2.55;;;;;;;10.51;100.00;101399.75;5094070;28;20032;-78
2023/08/29 04:54:12;;;;;;;5.18;2.78;;;;;;;10.52;100.00;101393.44;5095311;28;20047;-79
2023/08/29 04:56:38;;;;;;;6.90;3.30;;;;;;;10.53;100.00;101392.47;5095184;28;20035;-79
2023/08/29 04:59:03;;;;;;;4.53;2.70;;;;;;;10.54;100.00;101386.19;5056474;28;20048;-78
2023/08/29 05:01:29;;;;;;;4.18;2.95;;;;;;;10.55;100.00;101385.22;5074632;28;20045;-78
2023/08/29 05:03:55;;;;;;;5.55;2.95;;;;;;;10.55;100.00;101398.53;5074725;28;20040;-78
2023/08/29 05:06:20;;;;;;;4.93;2.95;;;;;;;10.57;100.00;101390.41;5074258;28;20037;-80
2023/08/29 05:08:45;;;;;;;6.28;3.50;;;;;;;10.56;100.00;101386.91;5073237;28;20089;-77
2023/08/29 05:11:11;;;;;;;5.22;2.97;;;;;;;10.56;100.00;101389.56;5073524;28;20028;-77
2023/08/29 05:13:36;;;;;;;4.43;2.90;;;;;;;10.56;100.00;101388.72;5073037;28;20032;-78
2023/08/29 05:16:03;;;;;;;6.95;3.55;;;;;;;10.55;100.00;101384.34;5075001;28;20104;-78
2023/08/29 05:18:28;;;;;;;4.15;3.30;;;;;;;10.56;100.00;101389.56;5074941;28;20040;-77
2023/08/29 05:20:55;;;;;;;3.63;3.03;;;;;;;10.55;100.00;101379.91;5073858;28;20033;-78
2023/08/29 05:23:21;;;;;;;6.05;3.17;;;;;;;10.56;100.00;101391.38;5073630;28;20036;-79
2023/08/29 05:25:47;;;;;;;4.97;3.22;;;;;;;10.57;100.00;101385.09;5074962;28;20036;-79
2023/08/29 05:28:12;;;;;;;4.93;3.10;;;;;;;10.59;100.00;101383.97;5074902;28;20449;-79
2023/08/29 05:30:38;;;;;;;4.93;3.10;;;;;;;10.61;100.00;101378.53;5075319;28;20032;-79
2023/08/29 05:33:03;;;;;;;5.10;3.63;;;;;;;10.66;100.00;101375.50;5074889;28;20430;-78
2023/08/29 05:35:28;;;;;;;8.88;3.65;;;;;;;10.67;100.00;101372.69;5073392;28;20035;-78
2023/08/29 05:37:54;;;;;;;6.40;3.58;;;;;;;10.69;100.00;101375.22;5075124;28;20111;-78
2023/08/29 05:40:19;;;;;;;6.60;3.90;;;;;;;10.72;100.00;101372.34;5074822;28;20107;-78
2023/08/29 05:42:44;;;;;;;6.78;3.63;;;;;;;10.74;100.00;101371.22;5073776;28;20033;-77
2023/08/29 05:45:10;;;;;;;6.25;3.80;;;;;;;10.76;100.00;101373.75;5074327;28;20236;-78
2023/08/29 05:47:36;;;;;;;6.45;3.55;;;;;;;10.76;100.00;101371.97;5074401;28;20074;-78
2023/08/29 05:50:01;;;;;;;6.10;3.08;;;;;;;10.78;100.00;101374.50;5073122;28;20033;-78
2023/08/29 05:52:26;;;;;;;3.90;2.95;;;;;;;10.79;100.00;101372.66;5074465;28;20020;-78
2023/08/29 05:54:52;;;;;;;5.85;3.10;;;;;;;10.81;100.00;101370.72;5073188;28;20369;-78
2023/08/29 05:57:17;;;;;;;5.53;3.10;;;;;;;10.82;100.00;101378.56;5074223;28;20074;-77
2023/08/29 05:59:42;;;;;;;4.90;3.17;;;;;;;10.84;100.00;101373.13;5084785;28;20044;-78
2023/08/29 06:02:08;;;;;;;4.57;3.20;;;;;;;10.86;100.00;101373.84;5075680;28;20490;-78
2023/08/29 06:04:33;;;;;;;5.70;3.42;;;;;;;10.87;100.00;101371.06;5094131;28;20486;-78
2023/08/29 06:06:59;;;;;;;4.95;3.00;;;;;;;10.91;100.00;101368.97;5094902;28;20036;-78
2023/08/29 06:09:24;;;;;;;5.47;3.70;;;;;;;10.98;100.00;101367.50;5094848;28;20023;-78
2023/08/29 06:11:50;;;;;;;4.95;3.45;;;;;;;11.03;100.00;101375.09;5076200;28;20542;-78
2023/08/29 06:14:15;;;;;;;3.33;3.03;;;;;;;11.07;100.00;101377.38;5093116;28;20032;-78
2023/08/29 06:16:40;;;;;;;6.47;3.55;;;;;;;11.13;100.00;101377.84;5059753;28;20070;-78
2023/08/29 06:19:06;;;;;;;5.55;2.95;;;;;;;11.19;100.00;101377.31;5094129;28;20032;-79
2023/08/29 06:21:31;;;;;;;7.85;3.28;;;;;;;11.24;100.00;101375.09;5076415;28;20353;-78
2023/08/29 06:23:56;;;;;;;5.72;4.00;;;;;;;11.28;100.00;101369.38;5094263;28;20032;-78
2023/08/29 06:26:22;;;;;;;9.50;4.28;;;;;;;11.36;100.00;101366.06;5094054;28;20031;-78
2023/08/29 06:28:47;;;;;;;5.55;4.15;;;;;;;11.44;100.00;101358.25;5094484;28;20032;-78
2023/08/29 06:31:13;;;;;;;6.15;4.40;;;;;;;11.54;100.00;101355.66;5094359;28;20024;-78
2023/08/29 06:33:39;;;;;;;8.93;4.63;;;;;;;11.63;100.00;101356.69;5094269;28;20032;-79
2023/08/29 06:36:05;;;;;;;8.02;4.30;;;;;;;11.71;100.00;101358.69;5075593;28;20028;-78
2023/08/29 06:38:31;;;;;;;8.93;4.38;;;;;;;11.82;100.00;101359.44;5093588;28;20055;-79
2023/08/29 06:40:57;;;;;;;8.88;4.80;;;;;;;11.95;100.00;101361.03;5075175;28;20067;-78
2023/08/29 06:43:23;;;;;;;8.55;5.00;;;;;;;12.06;100.00;101357.41;5075292;28;20043;-77
2023/08/29 06:45:49;;;;;;;8.77;4.75;;;;;;;12.16;100.00;101368.94;5094241;28;20032;-77
2023/08/29 06:48:14;;;;;;;8.98;4.85;;;;;;;12.28;100.00;101359.84;5075651;28;20032;-78
2023/08/29 06:50:40;;;;;;;9.32;5.38;;;;;;;12.41;100.00;101354.25;5093563;28;20028;-78
2023/08/29 06:53:05;;;;;;;10.48;6.35;;;;;;;12.58;100.00;101349.22;5093270;28;20481;-78
2023/08/29 06:55:32;;;;;;;12.07;6.47;;;;;;;12.74;100.00;101346.84;5093390;28;20353;-77
2023/08/29 06:57:58;;;;;;;14.30;6.85;;;;;;;12.92;100.00;101351.47;5093906;28;20024;-78
2023/08/29 07:00:23;;;;;;;13.27;6.78;;;;;;;13.06;100.00;101359.03;5075382;28;20063;-79
2023/08/29 07:02:50;;;;;;;11.85;6.93;;;;;;;13.22;100.00;101361.94;5093425;28;20111;-77
2023/08/29 07:05:16;;;;;;;16.52;6.75;;;;;;;13.35;100.00;101358.19;5093425;28;20024;-77
2023/08/29 07:07:43;;;;;;;15.68;6.38;;;;;;;13.52;100.00;101361.91;5075509;28;20047;-76
2023/08/29 07:10:09;;;;;;;9.73;6.32;;;;;;;13.70;100.00;101362.84;5093854;28;20128;-78
2023/08/29 07:12:35;;;;;;;14.20;6.60;;;;;;;13.95;100.00;101365.00;5075433;28;20064;-76
2023/08/29 07:15:00;;;;;;;9.98;6.30;;;;;;;14.22;100.00;101366.81;5092912;28;20472;-77
2023/08/29 07:17:27;;;;;;;9.95;5.43;;;;;;;14.54;100.00;101369.00;5093177;28;20020;-77
2023/08/29 07:19:52;;;;;;;7.45;4.30;;;;;;;14.69;100.00;101360.44;5093165;28;20078;-77
2023/08/29 07:22:18;;;;;;;8.48;4.97;;;;;;;14.81;100.00;101368.09;5094012;28;20490;-77
2023/08/29 07:24:43;;;;;;;6.35;4.22;;;;;;;14.89;100.00;101364.66;5093885;28;20029;-77
2023/08/29 07:27:09;;;;;;;8.50;4.18;;;;;;;14.97;100.00;101361.19;5075532;28;20180;-77
2023/08/29 07:29:34;;;;;;;8.98;3.97;;;;;;;15.10;100.00;101353.59;5093705;28;20058;-78
2023/08/29 07:32:00;;;;;;;4.80;3.75;;;;;;;15.13;100.00;101355.13;5093377;28;20036;-77
2023/08/29 07:34:25;;;;;;;6.32;4.07;;;;;;;15.15;100.00;101362.03;5093727;28;20085;-78
2023/08/29 07:36:50;;;;;;;9.38;4.47;;;;;;;15.24;100.00;101359.38;5075063;28;20032;-77
2023/08/29 07:39:18;;;;;;;12.95;4.18;;;;;;;15.33;100.00;101356.63;5093065;28;20377;-76
2023/08/29 07:41:45;;;;;;;4.28;3.53;;;;;;;15.40;100.00;101347.94;5092961;28;20038;-77
2023/08/29 07:44:10;;;;;;;11.27;3.80;;;;;;;15.55;100.00;101353.56;5092935;28;20031;-76
2023/08/29 07:46:35;;;;;;;4.78;3.50;;;;;;;15.71;100.00;101356.31;5093201;28;20024;-77
2023/08/29 07:49:01;;;;;;;3.78;3.20;;;;;;;15.89;100.00;101350.91;5092845;28;20032;-78
2023/08/29 07:51:26;;;;;;;7.07;3.70;;;;;;;16.04;100.00;101346.56;5092648;28;20036;-78
2023/08/29 07:53:51;;;;;;;4.05;3.42;;;;;;;16.19;100.00;101346.78;5092759;28;20077;-78
2023/08/29 07:56:17;;;;;;;5.03;3.28;;;;;;;16.44;100.00;101344.16;5075141;28;20358;-77
2023/08/29 07:58:43;;;;;;;4.80;3.00;;;;;;;16.69;100.00;101339.66;5074710;28;20101;-78
2023/08/29 08:01:08;;;;;;;4.07;2.97;;;;;;;17.00;100.00;101343.56;5074869;28;20029;-76
2023/08/29 08:03:34;;;;;;;5.20;3.17;;;;;;;17.05;100.00;101338.53;5093007;28;20024;-76
2023/08/29 08:06:00;;;;;;;3.83;3.15;;;;;;;17.16;100.00;101340.00;5092669;28;20055;-77
2023/08/29 08:08:25;;;;;;;6.32;3.50;;;;;;;17.17;100.00;101333.63;5092721;28;20028;-77
2023/08/29 08:10:51;;;;;;;7.50;3.10;;;;;;;17.29;100.00;101337.63;5092709;28;20067;-77
2023/08/29 08:13:16;;;;;;;3.13;2.83;;;;;;;17.29;100.00;101334.94;5092775;28;20032;-77
2023/08/29 08:15:42;;;;;;;5.93;3.00;;;;;;;17.32;100.00;101337.28;5092671;28;20479;-77
2023/08/29 08:18:08;;;;;;;2.92;1.92;;;;;;;17.45;100.00;101336.75;5074469;28;20028;-78
2023/08/29 08:20:34;;;;;;;1.98;1.80;;;;;;;17.88;100.00;101329.19;5092811;28;20031;-78
2023/08/29 08:22:59;;;;;;;2.28;1.67;;;;;;;18.18;100.00;101334.78;5092683;28;20051;-77
2023/08/29 08:25:25;;;;;;;2.53;1.42;;;;;;;18.53;100.00;101335.25;5092281;28;20028;-78
2023/08/29 08:27:51;;;;;;;1.33;1.23;;;;;;;18.70;100.00;101333.25;5095714;28;20418;-76
2023/08/29 08:30:17;;;;;;;1.83;1.20;;;;;;;18.82;100.00;101326.44;5095938;28;20105;-78
2023/08/29 08:32:43;;;;;;;1.35;1.20;;;;;;;19.03;100.00;101331.16;5096129;28;20502;-78
2023/08/29 08:35:10;;;;;;;2.10;1.20;;;;;;;19.24;100.00;101320.66;5096056;28;20032;-77
2023/08/29 08:37:36;;;;;;;2.80;1.40;;;;;;;19.34;100.00;101322.06;5096686;28;20040;-78
2023/08/29 08:40:11;;;;;;;3.42;1.10;;;;;;;19.22;100.00;101314.63;5095833;28;20382;-78
2023/08/29 08:42:44;;;;;;;5.43;1.30;;;;;;;19.30;100.00;101310.00;5096281;28;20111;-78
2023/08/29 08:45:10;;;;;;;3.38;1.10;;;;;;;19.63;100.00;101301.50;5095927;28;20077;-77
2023/08/29 08:47:36;;;;;;;1.40;1.30;;;;;;;20.14;100.00;101298.00;5095841;28;20024;-77
2023/08/29 08:50:03;;;;;;;1.77;1.02;;;;;;;20.53;100.00;101295.88;5077425;28;20111;-79
2023/08/29 08:52:32;;;;;;;1.45;1.13;;;;;;;20.92;100.00;101283.75;5095585;28;20067;-78
2023/08/29 08:54:57;;;;;;;2.15;1.20;;;;;;;21.69;100.00;101295.47;5096124;28;20064;-78
2023/08/29 08:57:25;;;;;;;1.33;1.10;;;;;;;21.99;100.00;101290.56;5095920;28;20067;-78
2023/08/29 08:59:50;;;;;;;1.73;1.10;;;;;;;21.62;100.00;101292.72;5095901;28;20040;-77
2023/08/29 09:02:17;;;;;;;1.20;1.10;;;;;;;20.85;100.00;101299.09;5095723;28;20046;-78
2023/08/29 09:04:43;;;;;;;1.92;1.10;;;;;;;20.37;100.00;101296.97;5095442;28;20028;-78
2023/08/29 09:07:09;;;;;;;1.05;1.00;;;;;;;19.95;100.00;101294.03;5095591;28;20387;-78
2023/08/29 09:09:34;;;;;;;2.75;1.50;;;;;;;19.54;100.00;101279.19;5095353;28;20064;-79
2023/08/29 09:11:59;;;;;;;4.88;1.33;;;;;;;19.40;100.00;101292.69;5095628;28;20035;-78
2023/08/29 09:14:26;;;;;;;2.60;1.45;;;;;;;19.20;100.00;101285.97;5095421;28;20071;-79
2023/08/29 09:17:04;;;;;;;1.83;1.30;;;;;;;18.94;100.00;101291.78;5095380;28;20036;-79
2023/08/29 09:19:33;;;;;;;3.67;1.67;;;;;;;18.77;100.00;101293.78;5095654;28;20039;-78
2023/08/29 09:21:58;;;;;;;1.95;1.20;;;;;;;18.71;100.00;101291.00;5095197;28;20036;-80
2023/08/29 09:24:34;;;;;;;1.45;1.10;;;;;;;18.68;100.00;101295.72;5095160;28;20532;-78
2023/08/29 09:27:06;;;;;;;1.90;1.20;;;;;;;19.44;100.00;101286.72;5094781;28;20028;-78
2023/08/29 09:29:33;;;;;;;1.92;0.95;;;;;;;21.21;100.00;101284.56;5094873;28;20496;-79
2023/08/29 09:31:59;;;;;;;1.25;1.00;;;;;;;21.83;92.45;101289.06;5094860;28;20032;-78
2023/08/29 09:34:31;;;;;;;0.95;0.90;;;;;;;22.43;100.00;101287.56;5095011;28;20131;-80
2023/08/29 09:36:57;;;;;;;0.82;0.82;;;;;;;22.99;82.55;101295.28;5094667;28;20047;-78
2023/08/29 09:39:23;;;;;;;1.60;1.08;;;;;;;22.83;79.81;101287.59;5094857;28;20122;-79
2023/08/29 09:42:00;;;;;;;1.48;1.10;;;;;;;23.16;73.91;101284.03;5094681;28;20071;-79
2023/08/29 09:44:26;;;;;;;2.78;1.20;;;;;;;23.46;80.08;101281.63;5094666;28;20445;-79
2023/08/29 09:46:52;;;;;;;1.85;1.00;;;;;;;24.03;73.89;101286.41;5095239;28;20398;-79
2023/08/29 09:49:17;;;;;;;1.20;1.10;;;;;;;24.18;77.69;101267.91;5094713;28;20123;-79
2023/08/29 09:51:43;;;;;;;2.63;1.40;;;;;;;23.69;74.42;101273.00;5060036;28;20043;-80
2023/08/29 09:54:12;;;;;;;6.47;1.58;;;;;;;23.14;87.69;101272.53;5094792;28;20085;-78
2023/08/29 09:56:41;;;;;;;2.35;1.40;;;;;;;22.54;91.88;101271.53;5076291;28;20085;-76
2023/08/29 09:59:12;;;;;;;1.70;1.40;;;;;;;22.54;100.00;101271.53;5094062;28;20040;-79
2023/08/29 10:01:41;;;;;;;1.17;1.00;;;;;;;23.08;75.11;101266.06;5095018;28;20028;-80
2023/08/29 10:04:11;;;;;;;1.20;1.10;;;;;;;22.83;78.04;101264.00;5094597;28;20107;-80
2023/08/29 10:06:37;;;;;;;1.08;0.90;;;;;;;22.18;80.75;101266.44;5094964;28;20046;-79
2023/08/29 10:09:04;;;;;;;2.42;0.80;;;;;;;21.63;73.46;101256.50;5094604;28;20028;-81
2023/08/29 10:11:30;;;;;;;1.27;0.90;;;;;;;21.76;87.15;101263.81;5094250;28;20032;-79
2023/08/29 10:13:58;;;;;;;1.38;0.80;;;;;;;21.83;76.45;101261.97;5076210;28;20054;-80
2023/08/29 10:16:24;;;;;;;1.75;0.80;;;;;;;22.01;82.96;101260.56;5094166;28;20058;-79
2023/08/29 10:18:50;;;;;;;0.73;0.73;;;;;;;21.83;81.47;101255.72;5075777;28;20036;-80
2023/08/29 10:21:18;;;;;;;1.42;0.90;;;;;;;21.39;96.11;101265.94;5094292;28;20038;-80
2023/08/29 10:23:44;;;;;;;1.45;0.85;;;;;;;21.83;96.88;101255.72;5093937;28;20044;-79
2023/08/29 10:26:10;;;;;;;1.27;1.00;;;;;;;23.04;86.20;101262.09;5093954;28;20024;-80
2023/08/29 10:28:37;;;;;;;0.90;0.68;;;;;;;23.28;68.86;101252.44;5093998;28;20034;-80
2023/08/29 10:31:05;;;;;;;1.25;0.90;;;;;;;22.95;75.30;101244.38;5075736;28;20042;-78
2023/08/29 10:33:34;;;;;;;3.53;1.10;;;;;;;22.44;75.95;101248.59;5094415;28;20135;-80
2023/08/29 10:36:01;;;;;;;2.67;1.00;;;;;;;21.97;87.33;101243.06;5075549;28;20050;-83
2023/08/29 10:38:28;;;;;;;5.20;1.10;;;;;;;21.66;89.33;101244.41;5093439;28;20045;-80
2023/08/29 10:41:06;;;;;;;0.90;0.90;;;;;;;21.16;93.38;101241.03;5094099;28;20433;-79
2023/08/29 10:43:32;;;;;;;0.80;0.80;;;;;;;20.81;100.00;101249.13;5093837;28;20051;-80
2023/08/29 10:46:12;;;;;;;0.82;0.82;;;;;;;20.66;100.00;101241.97;5093590;28;20032;-80
2023/08/29 10:48:46;;;;;;;1.35;0.90;;;;;;;20.51;100.00;101246.56;5074915;28;20024;-79
2023/08/29 10:51:17;;;;;;;1.83;1.70;;;;;;;20.23;100.00;101242.81;5093437;28;20051;-78
2023/08/29 10:53:45;;;;;;;2.92;1.00;;;;;;;20.10;100.00;101245.38;5093324;28;20024;-79
2023/08/29 10:56:12;;;;;;;2.35;0.95;;;;;;;19.94;100.00;101246.44;5093290;28;20040;-79
2023/08/29 10:58:42;;;;;;;2.97;1.00;;;;;;;19.87;100.00;101248.22;5093300;28;20036;-79
2023/08/29 11:01:28;;;;;;;2.22;0.98;;;;;;;19.89;100.00;101246.19;5071746;28;20057;-79
2023/08/29 11:03:55;;;;;;;1.05;0.90;;;;;;;19.83;100.00;101249.66;5073389;28;20090;-79
2023/08/29 11:06:22;;;;;;;1.20;0.90;;;;;;;19.72;100.00;101245.53;5073083;28;20044;-79
2023/08/29 11:08:48;;;;;;;0.82;0.82;;;;;;;19.62;100.00;101240.44;5072793;28;20024;-79
2023/08/29 11:11:13;;;;;;;4.65;1.00;;;;;;;19.69;100.00;101235.97;5072920;28;20326;-79
2023/08/29 11:13:55;;;;;;;2.15;1.08;;;;;;;19.79;100.00;101232.16;5073529;28;20032;-79